»·PEaware :: N614FT KSAD-KTUS

N614FT :: KSAD-KTUS

FLIGHT INFORMATION

Flight Status: Arrived
Operator: Privately registered:
United States
More flights under this callsign
Pilot: Carlos A. (16805)
Aircraft: PIPER PA-31/31P NAVAJO CHIEFTAIN
(PA31)
More flights by this aircraft type
Origin: KSAD Safford Regl
United States
Destination: KTUS Tucson Intl
United States
More flights between these airports :: More routes between these airports
Route:
File this flight plan on PilotEdge
Remarks: Arizona Alphabet Challenge
Altitude:
(Current/Filed)
8,500ft
Speed:
(Current/Filed)
180kts
Departed: 21-Sep-23 10:48 AM
Arrived: 21-Sep-23 11:32 AM
Distance/Time
Traveled:
79nm/0:44
Distance/Time
To Go:
Arrived

Flight Plot

Page will automatically refresh every two minutes.

Flight plan parsing failed; only flown route is shown


Map Options




Map Legend


Flown Route
Filed Route
Departure Airport
Arrival Airport
Navaid (VOR, NDB)
Fix

Horizontal Profiles

Position Reports

Time Latitude Longitude Heading Altitude Ground
Speed
21-Sep-23 10:38 32.852536 -109.636557 319 3181ft 0kts
21-Sep-23 10:39 32.852599 -109.636640 311 3181ft 2kts
21-Sep-23 10:40 32.853843 -109.637449 327 3181ft 5kts
21-Sep-23 10:41 32.855924 -109.639851 313 3181ft 13kts
21-Sep-23 10:42 32.858770 -109.643009 6 3181ft 8kts
21-Sep-23 10:43 32.858989 -109.642829 44 3181ft 0kts
21-Sep-23 10:44 32.858989 -109.642829 44 3181ft 0kts
21-Sep-23 10:45 32.858989 -109.642828 44 3181ft 0kts
21-Sep-23 10:46 32.859265 -109.642512 60 3181ft 3kts
21-Sep-23 10:47 32.850426 -109.632319 145 3593ft 88kts
21-Sep-23 10:48 32.850529 -109.602036 49 4506ft 127kts
21-Sep-23 10:49 32.848491 -109.566220 154 5463ft 115kts
21-Sep-23 10:50 32.819282 -109.583543 213 7274ft 106kts
21-Sep-23 10:51 32.787877 -109.613498 228 8242ft 155kts
21-Sep-23 10:52 32.755404 -109.658566 222 8515ft 196kts
21-Sep-23 10:53 32.714904 -109.693194 218 9766ft 179kts
21-Sep-23 10:54 32.676404 -109.732485 220 10338ft 195kts
21-Sep-23 10:55 32.623391 -109.740923 184 10389ft 204kts
21-Sep-23 10:56 32.569906 -109.752142 212 10524ft 197kts
21-Sep-23 10:57 32.536787 -109.803488 238 10466ft 198kts
21-Sep-23 10:58 32.516133 -109.864279 252 10440ft 205kts
21-Sep-23 10:59 32.506973 -109.930270 244 10617ft 202kts
21-Sep-23 11:00 32.479095 -109.988121 231 10467ft 194kts
21-Sep-23 11:01 32.444546 -110.039098 235 10597ft 195kts
21-Sep-23 11:02 32.411584 -110.092012 234 10349ft 213kts
21-Sep-23 11:03 32.382952 -110.149145 248 10300ft 206kts
21-Sep-23 11:04 32.358381 -110.206608 243 10611ft 205kts
21-Sep-23 11:05 32.336998 -110.268774 251 10625ft 205kts
21-Sep-23 11:06 32.323253 -110.334373 252 10619ft 202kts
21-Sep-23 11:07 32.320274 -110.398729 263 10733ft 200kts
21-Sep-23 11:08 32.302074 -110.459926 245 9771ft 195kts
21-Sep-23 11:09 32.285946 -110.523907 256 8972ft 209kts
21-Sep-23 11:10 32.282098 -110.591200 269 8918ft 207kts
21-Sep-23 11:11 32.283499 -110.660880 265 8534ft 218kts
21-Sep-23 11:12 32.281683 -110.731171 269 8499ft 216kts
21-Sep-23 11:13 32.285596 -110.801240 270 8562ft 216kts
21-Sep-23 11:14 32.291935 -110.871573 275 8479ft 214kts
21-Sep-23 11:15 32.310291 -110.939044 282 8586ft 215kts
21-Sep-23 11:16 32.320772 -111.007069 273 8370ft 195kts
21-Sep-23 11:17 32.319738 -111.056035 265 8290ft 133kts
21-Sep-23 11:18 32.319727 -111.100638 256 8512ft 155kts
21-Sep-23 11:19 32.312412 -111.152590 252 8655ft 165kts
21-Sep-23 11:20 32.310580 -111.206739 283 8489ft 180kts
21-Sep-23 11:21 32.337859 -111.245917 9 8373ft 185kts
21-Sep-23 11:23 32.341694 -111.202615 139 7981ft 160kts
21-Sep-23 11:24 32.307965 -111.164147 140 6805ft 162kts
21-Sep-23 11:25 32.277230 -111.128071 144 6013ft 150kts
21-Sep-23 11:26 32.249757 -111.096710 148 5369ft 130kts
21-Sep-23 11:27 32.226098 -111.068323 139 4927ft 113kts
21-Sep-23 11:28 32.199823 -111.037562 144 4675ft 141kts
21-Sep-23 11:29 32.172432 -111.005386 143 4159ft 132kts
21-Sep-23 11:30 32.147884 -110.976302 136 3275ft 112kts
21-Sep-23 11:31 32.126086 -110.951101 144 2739ft 112kts
21-Sep-23 11:32 32.118030 -110.941488 126 2647ft 10kts
21-Sep-23 11:33 32.117862 -110.940417 80 2647ft 0kts
21-Sep-23 11:34 32.118093 -110.940118 313 2647ft 0kts
21-Sep-23 11:35 32.119705 -110.940649 38 2647ft 4kts
21-Sep-23 11:36 32.119714 -110.940640 39 2647ft 0kts

Navigation Log

Ident Type
Flight plan parsing failed, navigation log unavailable